sensor_id;sensor_type;location;lat;lon;timestamp;P1;durP1;ratioP1;P2;durP2;ratioP2
58697;SDS011;44475;53.206;-6.106;2022-11-13T00:01:44;3.95;;;2.50;;
58697;SDS011;44475;53.206;-6.106;2022-11-13T00:04:29;5.03;;;2.60;;
58697;SDS011;44475;53.206;-6.106;2022-11-13T00:07:14;3.88;;;2.38;;
58697;SDS011;44475;53.206;-6.106;2022-11-13T00:09:59;4.78;;;2.80;;
58697;SDS011;44475;53.206;-6.106;2022-11-13T00:12:44;4.30;;;2.30;;
58697;SDS011;44475;53.206;-6.106;2022-11-13T00:15:29;6.22;;;2.50;;
58697;SDS011;44475;53.206;-6.106;2022-11-13T00:18:13;5.00;;;2.38;;
58697;SDS011;44475;53.206;-6.106;2022-11-13T00:21:03;4.32;;;2.45;;
58697;SDS011;44475;53.206;-6.106;2022-11-13T00:23:49;5.00;;;2.70;;
58697;SDS011;44475;53.206;-6.106;2022-11-13T00:26:34;4.65;;;2.42;;
58697;SDS011;44475;53.206;-6.106;2022-11-13T00:29:19;4.55;;;2.60;;
58697;SDS011;44475;53.206;-6.106;2022-11-13T00:32:04;4.70;;;2.45;;
58697;SDS011;44475;53.206;-6.106;2022-11-13T00:34:49;5.15;;;2.47;;
58697;SDS011;44475;53.206;-6.106;2022-11-13T00:37:34;4.70;;;2.45;;
58697;SDS011;44475;53.206;-6.106;2022-11-13T00:40:19;4.28;;;2.50;;
58697;SDS011;44475;53.206;-6.106;2022-11-13T00:43:04;4.60;;;2.58;;
58697;SDS011;44475;53.206;-6.106;2022-11-13T00:45:48;4.65;;;2.30;;
58697;SDS011;44475;53.206;-6.106;2022-11-13T00:48:34;6.20;;;2.50;;
58697;SDS011;44475;53.206;-6.106;2022-11-13T00:51:19;4.55;;;2.35;;
58697;SDS011;44475;53.206;-6.106;2022-11-13T00:54:04;5.32;;;2.40;;
58697;SDS011;44475;53.206;-6.106;2022-11-13T00:56:49;5.20;;;2.40;;
58697;SDS011;44475;53.206;-6.106;2022-11-13T00:59:34;4.60;;;2.40;;
58697;SDS011;44475;53.206;-6.106;2022-11-13T01:02:19;5.32;;;2.50;;
58697;SDS011;44475;53.206;-6.106;2022-11-13T01:05:03;4.25;;;2.33;;
58697;SDS011;44475;53.206;-6.106;2022-11-13T01:07:49;4.43;;;2.42;;
58697;SDS011;44475;53.206;-6.106;2022-11-13T01:10:37;5.47;;;2.53;;
58697;SDS011;44475;53.206;-6.106;2022-11-13T01:13:25;6.30;;;2.28;;
58697;SDS011;44475;53.206;-6.106;2022-11-13T01:16:11;4.28;;;2.33;;
58697;SDS011;44475;53.206;-6.106;2022-11-13T01:18:57;4.40;;;2.58;;
58697;SDS011;44475;53.206;-6.106;2022-11-13T01:21:42;4.38;;;2.42;;
58697;SDS011;44475;53.206;-6.106;2022-11-13T01:24:27;4.47;;;2.20;;
58697;SDS011;44475;53.206;-6.106;2022-11-13T01:27:11;4.35;;;2.03;;
58697;SDS011;44475;53.206;-6.106;2022-11-13T01:29:58;4.10;;;2.50;;
58697;SDS011;44475;53.206;-6.106;2022-11-13T01:32:42;5.28;;;2.40;;
58697;SDS011;44475;53.206;-6.106;2022-11-13T01:35:27;5.63;;;2.50;;
58697;SDS011;44475;53.206;-6.106;2022-11-13T01:38:12;3.85;;;2.30;;
58697;SDS011;44475;53.206;-6.106;2022-11-13T01:40:57;3.40;;;2.20;;
58697;SDS011;44475;53.206;-6.106;2022-11-13T01:43:42;4.22;;;2.20;;
58697;SDS011;44475;53.206;-6.106;2022-11-13T01:46:28;4.55;;;2.30;;
58697;SDS011;44475;53.206;-6.106;2022-11-13T01:49:25;4.38;;;2.10;;
58697;SDS011;44475;53.206;-6.106;2022-11-13T01:52:18;4.45;;;2.15;;
58697;SDS011;44475;53.206;-6.106;2022-11-13T01:55:12;4.78;;;2.40;;
58697;SDS011;44475;53.206;-6.106;2022-11-13T01:58:01;5.10;;;2.40;;
58697;SDS011;44475;53.206;-6.106;2022-11-13T02:00:47;6.40;;;2.28;;
58697;SDS011;44475;53.206;-6.106;2022-11-13T02:03:33;4.90;;;2.30;;
58697;SDS011;44475;53.206;-6.106;2022-11-13T02:06:18;3.80;;;2.08;;
58697;SDS011;44475;53.206;-6.106;2022-11-13T02:09:04;4.47;;;2.20;;
58697;SDS011;44475;53.206;-6.106;2022-11-13T02:11:50;5.60;;;2.30;;
58697;SDS011;44475;53.206;-6.106;2022-11-13T02:14:37;4.63;;;2.38;;
58697;SDS011;44475;53.206;-6.106;2022-11-13T02:17:32;5.32;;;2.30;;
58697;SDS011;44475;53.206;-6.106;2022-11-13T02:20:20;4.40;;;2.22;;
58697;SDS011;44475;53.206;-6.106;2022-11-13T02:23:30;4.70;;;2.10;;
58697;SDS011;44475;53.206;-6.106;2022-11-13T02:26:28;4.75;;;2.30;;
58697;SDS011;44475;53.206;-6.106;2022-11-13T02:29:15;5.75;;;2.28;;
58697;SDS011;44475;53.206;-6.106;2022-11-13T02:32:00;4.97;;;2.30;;
58697;SDS011;44475;53.206;-6.106;2022-11-13T02:34:45;4.25;;;2.15;;
58697;SDS011;44475;53.206;-6.106;2022-11-13T02:41:04;4.97;;;2.20;;
58697;SDS011;44475;53.206;-6.106;2022-11-13T02:43:49;5.53;;;2.60;;
58697;SDS011;44475;53.206;-6.106;2022-11-13T02:46:33;5.72;;;2.38;;
58697;SDS011;44475;53.206;-6.106;2022-11-13T02:49:18;5.43;;;2.20;;
58697;SDS011;44475;53.206;-6.106;2022-11-13T02:52:03;5.65;;;2.40;;
58697;SDS011;44475;53.206;-6.106;2022-11-13T02:54:48;5.85;;;2.40;;
58697;SDS011;44475;53.206;-6.106;2022-11-13T02:57:32;4.50;;;2.35;;
58697;SDS011;44475;53.206;-6.106;2022-11-13T03:00:17;5.38;;;2.30;;
58697;SDS011;44475;53.206;-6.106;2022-11-13T03:03:02;3.97;;;2.20;;
58697;SDS011;44475;53.206;-6.106;2022-11-13T03:05:47;4.55;;;2.15;;
58697;SDS011;44475;53.206;-6.106;2022-11-13T03:08:33;3.90;;;2.00;;
58697;SDS011;44475;53.206;-6.106;2022-11-13T03:11:17;5.28;;;2.20;;
58697;SDS011;44475;53.206;-6.106;2022-11-13T03:14:02;3.83;;;2.10;;
58697;SDS011;44475;53.206;-6.106;2022-11-13T03:16:46;4.57;;;2.10;;
58697;SDS011;44475;53.206;-6.106;2022-11-13T03:19:31;4.00;;;2.30;;
58697;SDS011;44475;53.206;-6.106;2022-11-13T03:22:16;4.40;;;2.20;;
58697;SDS011;44475;53.206;-6.106;2022-11-13T03:25:00;4.93;;;2.20;;
58697;SDS011;44475;53.206;-6.106;2022-11-13T03:27:45;4.63;;;2.17;;
58697;SDS011;44475;53.206;-6.106;2022-11-13T03:30:30;4.65;;;2.28;;
58697;SDS011;44475;53.206;-6.106;2022-11-13T03:33:15;5.32;;;2.22;;
58697;SDS011;44475;53.206;-6.106;2022-11-13T03:35:59;3.92;;;2.10;;
58697;SDS011;44475;53.206;-6.106;2022-11-13T03:38:44;5.63;;;2.20;;
58697;SDS011;44475;53.206;-6.106;2022-11-13T03:41:29;4.05;;;2.15;;
58697;SDS011;44475;53.206;-6.106;2022-11-13T03:44:13;3.88;;;2.10;;
58697;SDS011;44475;53.206;-6.106;2022-11-13T03:46:58;4.03;;;2.05;;
58697;SDS011;44475;53.206;-6.106;2022-11-13T03:49:42;5.35;;;2.40;;
58697;SDS011;44475;53.206;-6.106;2022-11-13T03:52:27;5.63;;;2.30;;
58697;SDS011;44475;53.206;-6.106;2022-11-13T03:55:12;3.63;;;2.15;;
58697;SDS011;44475;53.206;-6.106;2022-11-13T03:57:57;3.70;;;2.25;;
58697;SDS011;44475;53.206;-6.106;2022-11-13T04:00:42;7.10;;;2.40;;
58697;SDS011;44475;53.206;-6.106;2022-11-13T04:03:28;5.63;;;2.17;;
58697;SDS011;44475;53.206;-6.106;2022-11-13T04:06:12;5.55;;;2.45;;
58697;SDS011;44475;53.206;-6.106;2022-11-13T04:08:57;4.55;;;2.40;;
58697;SDS011;44475;53.206;-6.106;2022-11-13T04:11:41;3.70;;;2.03;;
58697;SDS011;44475;53.206;-6.106;2022-11-13T04:14:26;4.05;;;2.22;;
58697;SDS011;44475;53.206;-6.106;2022-11-13T04:17:11;4.60;;;2.33;;
58697;SDS011;44475;53.206;-6.106;2022-11-13T04:19:55;4.22;;;2.40;;
58697;SDS011;44475;53.206;-6.106;2022-11-13T04:22:40;6.30;;;2.30;;
58697;SDS011;44475;53.206;-6.106;2022-11-13T04:25:25;3.58;;;2.00;;
58697;SDS011;44475;53.206;-6.106;2022-11-13T04:28:10;5.72;;;2.30;;
58697;SDS011;44475;53.206;-6.106;2022-11-13T04:30:54;4.90;;;2.05;;
58697;SDS011;44475;53.206;-6.106;2022-11-13T04:33:40;3.90;;;2.22;;
58697;SDS011;44475;53.206;-6.106;2022-11-13T04:36:24;3.05;;;1.92;;
58697;SDS011;44475;53.206;-6.106;2022-11-13T04:39:09;3.95;;;2.10;;
58697;SDS011;44475;53.206;-6.106;2022-11-13T04:41:54;5.07;;;2.20;;
58697;SDS011;44475;53.206;-6.106;2022-11-13T04:44:57;4.07;;;2.08;;
58697;SDS011;44475;53.206;-6.106;2022-11-13T04:47:42;4.78;;;2.35;;
58697;SDS011;44475;53.206;-6.106;2022-11-13T04:50:27;4.03;;;2.10;;
58697;SDS011;44475;53.206;-6.106;2022-11-13T04:53:11;5.45;;;2.45;;
58697;SDS011;44475;53.206;-6.106;2022-11-13T04:55:56;4.53;;;2.20;;
58697;SDS011;44475;53.206;-6.106;2022-11-13T04:58:41;5.93;;;2.50;;
58697;SDS011;44475;53.206;-6.106;2022-11-13T05:01:26;4.00;;;2.30;;
58697;SDS011;44475;53.206;-6.106;2022-11-13T05:04:11;3.90;;;2.20;;
58697;SDS011;44475;53.206;-6.106;2022-11-13T05:06:57;3.70;;;2.10;;
58697;SDS011;44475;53.206;-6.106;2022-11-13T05:09:42;5.00;;;2.33;;
58697;SDS011;44475;53.206;-6.106;2022-11-13T05:12:26;4.38;;;2.20;;
58697;SDS011;44475;53.206;-6.106;2022-11-13T05:15:11;4.28;;;2.30;;
58697;SDS011;44475;53.206;-6.106;2022-11-13T05:17:56;4.53;;;2.15;;
58697;SDS011;44475;53.206;-6.106;2022-11-13T05:20:41;3.97;;;2.30;;
58697;SDS011;44475;53.206;-6.106;2022-11-13T05:23:26;4.93;;;2.28;;
58697;SDS011;44475;53.206;-6.106;2022-11-13T05:26:11;4.55;;;2.17;;
58697;SDS011;44475;53.206;-6.106;2022-11-13T05:28:57;3.85;;;2.20;;
58697;SDS011;44475;53.206;-6.106;2022-11-13T05:31:43;4.70;;;2.78;;
58697;SDS011;44475;53.206;-6.106;2022-11-13T05:34:28;4.97;;;2.30;;
58697;SDS011;44475;53.206;-6.106;2022-11-13T05:37:13;4.45;;;2.25;;
58697;SDS011;44475;53.206;-6.106;2022-11-13T05:39:57;7.43;;;2.72;;
58697;SDS011;44475;53.206;-6.106;2022-11-13T05:42:42;5.28;;;2.20;;
58697;SDS011;44475;53.206;-6.106;2022-11-13T05:45:26;4.97;;;2.40;;
58697;SDS011;44475;53.206;-6.106;2022-11-13T05:48:12;4.78;;;2.30;;
58697;SDS011;44475;53.206;-6.106;2022-11-13T05:51:15;4.15;;;2.35;;
58697;SDS011;44475;53.206;-6.106;2022-11-13T05:54:02;4.57;;;2.20;;
58697;SDS011;44475;53.206;-6.106;2022-11-13T05:56:48;4.32;;;2.30;;
58697;SDS011;44475;53.206;-6.106;2022-11-13T05:59:33;5.03;;;2.50;;
58697;SDS011;44475;53.206;-6.106;2022-11-13T06:02:18;5.78;;;2.30;;
58697;SDS011;44475;53.206;-6.106;2022-11-13T06:05:02;4.65;;;2.13;;
58697;SDS011;44475;53.206;-6.106;2022-11-13T06:07:48;4.20;;;2.13;;
58697;SDS011;44475;53.206;-6.106;2022-11-13T06:10:33;5.72;;;2.40;;
58697;SDS011;44475;53.206;-6.106;2022-11-13T06:13:17;5.20;;;2.50;;
58697;SDS011;44475;53.206;-6.106;2022-11-13T06:16:07;5.28;;;2.10;;
58697;SDS011;44475;53.206;-6.106;2022-11-13T06:21:44;4.97;;;2.50;;
58697;SDS011;44475;53.206;-6.106;2022-11-13T06:24:29;4.53;;;2.17;;
58697;SDS011;44475;53.206;-6.106;2022-11-13T06:27:13;4.80;;;2.53;;
58697;SDS011;44475;53.206;-6.106;2022-11-13T06:29:58;7.18;;;2.83;;
58697;SDS011;44475;53.206;-6.106;2022-11-13T06:32:42;4.65;;;2.25;;
58697;SDS011;44475;53.206;-6.106;2022-11-13T06:35:27;4.40;;;2.25;;
58697;SDS011;44475;53.206;-6.106;2022-11-13T06:38:12;6.35;;;2.25;;
58697;SDS011;44475;53.206;-6.106;2022-11-13T06:40:57;4.70;;;2.20;;
58697;SDS011;44475;53.206;-6.106;2022-11-13T06:43:42;6.15;;;2.30;;
58697;SDS011;44475;53.206;-6.106;2022-11-13T06:46:28;4.18;;;2.22;;
58697;SDS011;44475;53.206;-6.106;2022-11-13T06:49:13;4.35;;;2.33;;
58697;SDS011;44475;53.206;-6.106;2022-11-13T06:51:58;5.75;;;2.67;;
58697;SDS011;44475;53.206;-6.106;2022-11-13T06:54:43;7.85;;;2.90;;
58697;SDS011;44475;53.206;-6.106;2022-11-13T06:57:28;6.15;;;2.80;;
58697;SDS011;44475;53.206;-6.106;2022-11-13T07:00:12;4.85;;;2.33;;
58697;SDS011;44475;53.206;-6.106;2022-11-13T07:02:58;5.03;;;2.40;;
58697;SDS011;44475;53.206;-6.106;2022-11-13T07:05:43;4.20;;;2.20;;
58697;SDS011;44475;53.206;-6.106;2022-11-13T07:08:28;5.80;;;2.50;;
58697;SDS011;44475;53.206;-6.106;2022-11-13T07:11:15;5.15;;;2.30;;
58697;SDS011;44475;53.206;-6.106;2022-11-13T07:14:01;5.35;;;2.30;;
58697;SDS011;44475;53.206;-6.106;2022-11-13T07:16:46;5.47;;;2.40;;
58697;SDS011;44475;53.206;-6.106;2022-11-13T07:19:31;5.10;;;2.35;;
58697;SDS011;44475;53.206;-6.106;2022-11-13T07:22:16;3.55;;;2.22;;
58697;SDS011;44475;53.206;-6.106;2022-11-13T07:25:01;4.95;;;2.28;;
58697;SDS011;44475;53.206;-6.106;2022-11-13T07:27:45;5.95;;;2.30;;
58697;SDS011;44475;53.206;-6.106;2022-11-13T07:30:30;3.85;;;2.25;;
58697;SDS011;44475;53.206;-6.106;2022-11-13T07:33:15;5.40;;;2.40;;
58697;SDS011;44475;53.206;-6.106;2022-11-13T07:35:59;4.28;;;2.28;;
58697;SDS011;44475;53.206;-6.106;2022-11-13T07:38:44;4.78;;;2.38;;
58697;SDS011;44475;53.206;-6.106;2022-11-13T07:41:29;5.65;;;2.30;;
58697;SDS011;44475;53.206;-6.106;2022-11-13T07:44:14;4.28;;;2.53;;
58697;SDS011;44475;53.206;-6.106;2022-11-13T07:46:59;4.88;;;2.38;;
58697;SDS011;44475;53.206;-6.106;2022-11-13T07:49:44;4.05;;;2.20;;
58697;SDS011;44475;53.206;-6.106;2022-11-13T07:52:29;4.75;;;2.15;;
58697;SDS011;44475;53.206;-6.106;2022-11-13T07:55:13;6.05;;;2.40;;
58697;SDS011;44475;53.206;-6.106;2022-11-13T07:57:58;4.35;;;2.20;;
58697;SDS011;44475;53.206;-6.106;2022-11-13T08:00:44;4.80;;;2.30;;
58697;SDS011;44475;53.206;-6.106;2022-11-13T08:03:29;5.53;;;2.45;;
58697;SDS011;44475;53.206;-6.106;2022-11-13T08:06:15;6.00;;;2.38;;
58697;SDS011;44475;53.206;-6.106;2022-11-13T08:08:59;4.18;;;2.45;;
58697;SDS011;44475;53.206;-6.106;2022-11-13T08:11:44;6.30;;;2.42;;
58697;SDS011;44475;53.206;-6.106;2022-11-13T08:14:28;4.40;;;2.50;;
58697;SDS011;44475;53.206;-6.106;2022-11-13T08:17:13;4.22;;;2.50;;
58697;SDS011;44475;53.206;-6.106;2022-11-13T08:19:59;4.32;;;2.22;;
58697;SDS011;44475;53.206;-6.106;2022-11-13T08:22:43;4.63;;;2.50;;
58697;SDS011;44475;53.206;-6.106;2022-11-13T08:25:28;7.13;;;2.40;;
58697;SDS011;44475;53.206;-6.106;2022-11-13T08:28:14;4.32;;;2.40;;
58697;SDS011;44475;53.206;-6.106;2022-11-13T08:30:59;4.63;;;2.60;;
58697;SDS011;44475;53.206;-6.106;2022-11-13T08:33:45;4.97;;;2.50;;
58697;SDS011;44475;53.206;-6.106;2022-11-13T08:36:30;6.43;;;2.40;;
58697;SDS011;44475;53.206;-6.106;2022-11-13T08:39:15;5.55;;;2.53;;
58697;SDS011;44475;53.206;-6.106;2022-11-13T08:42:00;4.28;;;2.47;;
58697;SDS011;44475;53.206;-6.106;2022-11-13T08:44:45;5.15;;;2.30;;
58697;SDS011;44475;53.206;-6.106;2022-11-13T08:47:30;4.78;;;2.45;;
58697;SDS011;44475;53.206;-6.106;2022-11-13T08:50:15;4.38;;;2.42;;
58697;SDS011;44475;53.206;-6.106;2022-11-13T08:53:00;5.78;;;2.60;;
58697;SDS011;44475;53.206;-6.106;2022-11-13T08:55:44;5.00;;;2.25;;
58697;SDS011;44475;53.206;-6.106;2022-11-13T08:58:30;5.07;;;2.40;;
58697;SDS011;44475;53.206;-6.106;2022-11-13T09:01:15;6.22;;;2.78;;
58697;SDS011;44475;53.206;-6.106;2022-11-13T09:04:00;3.55;;;2.30;;
58697;SDS011;44475;53.206;-6.106;2022-11-13T09:06:45;4.22;;;2.38;;
58697;SDS011;44475;53.206;-6.106;2022-11-13T09:09:29;5.35;;;2.50;;
58697;SDS011;44475;53.206;-6.106;2022-11-13T09:12:14;3.90;;;2.33;;
58697;SDS011;44475;53.206;-6.106;2022-11-13T09:14:58;4.13;;;2.42;;
58697;SDS011;44475;53.206;-6.106;2022-11-13T09:17:43;6.75;;;2.63;;
58697;SDS011;44475;53.206;-6.106;2022-11-13T09:20:28;5.15;;;2.58;;
58697;SDS011;44475;53.206;-6.106;2022-11-13T09:23:14;5.95;;;2.78;;
58697;SDS011;44475;53.206;-6.106;2022-11-13T09:26:02;4.85;;;2.55;;
58697;SDS011;44475;53.206;-6.106;2022-11-13T09:28:47;4.68;;;2.70;;
58697;SDS011;44475;53.206;-6.106;2022-11-13T09:31:32;7.53;;;2.72;;
58697;SDS011;44475;53.206;-6.106;2022-11-13T09:34:16;5.22;;;2.83;;
58697;SDS011;44475;53.206;-6.106;2022-11-13T09:37:01;7.10;;;2.63;;
58697;SDS011;44475;53.206;-6.106;2022-11-13T09:39:45;5.43;;;2.50;;
58697;SDS011;44475;53.206;-6.106;2022-11-13T09:42:30;5.13;;;2.58;;
58697;SDS011;44475;53.206;-6.106;2022-11-13T09:45:17;5.38;;;2.50;;
58697;SDS011;44475;53.206;-6.106;2022-11-13T09:48:25;4.95;;;2.65;;
58697;SDS011;44475;53.206;-6.106;2022-11-13T09:51:13;4.25;;;2.40;;
58697;SDS011;44475;53.206;-6.106;2022-11-13T09:54:09;4.55;;;2.50;;
58697;SDS011;44475;53.206;-6.106;2022-11-13T09:57:41;4.82;;;2.47;;
58697;SDS011;44475;53.206;-6.106;2022-11-13T10:00:12;4.07;;;2.35;;
58697;SDS011;44475;53.206;-6.106;2022-11-13T10:03:16;5.10;;;2.45;;
58697;SDS011;44475;53.206;-6.106;2022-11-13T10:09:20;4.70;;;2.35;;
58697;SDS011;44475;53.206;-6.106;2022-11-13T10:12:13;5.32;;;2.40;;
58697;SDS011;44475;53.206;-6.106;2022-11-13T10:14:59;5.00;;;2.47;;
58697;SDS011;44475;53.206;-6.106;2022-11-13T10:17:50;5.05;;;2.53;;
58697;SDS011;44475;53.206;-6.106;2022-11-13T10:23:33;5.55;;;2.58;;
58697;SDS011;44475;53.206;-6.106;2022-11-13T10:26:21;3.95;;;2.60;;
58697;SDS011;44475;53.206;-6.106;2022-11-13T10:29:10;5.72;;;2.50;;
58697;SDS011;44475;53.206;-6.106;2022-11-13T10:31:57;5.47;;;2.75;;
58697;SDS011;44475;53.206;-6.106;2022-11-13T10:34:57;5.93;;;2.70;;
58697;SDS011;44475;53.206;-6.106;2022-11-13T10:40:48;4.80;;;2.80;;
58697;SDS011;44475;53.206;-6.106;2022-11-13T10:43:33;6.10;;;2.65;;
58697;SDS011;44475;53.206;-6.106;2022-11-13T10:46:20;4.93;;;2.40;;
58697;SDS011;44475;53.206;-6.106;2022-11-13T10:49:25;5.13;;;2.42;;
58697;SDS011;44475;53.206;-6.106;2022-11-13T10:52:18;5.57;;;2.78;;
58697;SDS011;44475;53.206;-6.106;2022-11-13T10:57:56;4.55;;;2.63;;
58697;SDS011;44475;53.206;-6.106;2022-11-13T11:00:44;4.70;;;2.58;;
58697;SDS011;44475;53.206;-6.106;2022-11-13T11:03:32;4.93;;;2.60;;
58697;SDS011;44475;53.206;-6.106;2022-11-13T11:06:17;4.45;;;2.50;;
58697;SDS011;44475;53.206;-6.106;2022-11-13T11:12:12;4.72;;;2.55;;
58697;SDS011;44475;53.206;-6.106;2022-11-13T11:15:49;6.13;;;2.67;;
58697;SDS011;44475;53.206;-6.106;2022-11-13T11:18:25;4.32;;;2.53;;
58697;SDS011;44475;53.206;-6.106;2022-11-13T11:21:15;4.93;;;2.47;;
58697;SDS011;44475;53.206;-6.106;2022-11-13T11:24:12;5.28;;;2.65;;
58697;SDS011;44475;53.206;-6.106;2022-11-13T11:27:15;6.50;;;3.00;;
58697;SDS011;44475;53.206;-6.106;2022-11-13T11:30:20;5.18;;;2.50;;
58697;SDS011;44475;53.206;-6.106;2022-11-13T11:42:09;4.45;;;2.30;;
58697;SDS011;44475;53.206;-6.106;2022-11-13T11:48:11;5.00;;;2.50;;
58697;SDS011;44475;53.206;-6.106;2022-11-13T12:00:15;5.90;;;2.72;;
58697;SDS011;44475;53.206;-6.106;2022-11-13T12:09:34;4.55;;;2.60;;
58697;SDS011;44475;53.206;-6.106;2022-11-13T12:24:17;4.93;;;2.53;;
58697;SDS011;44475;53.206;-6.106;2022-11-13T12:30:11;4.75;;;2.63;;
58697;SDS011;44475;53.206;-6.106;2022-11-13T12:33:18;5.78;;;2.58;;
58697;SDS011;44475;53.206;-6.106;2022-11-13T12:36:08;4.60;;;2.50;;
58697;SDS011;44475;53.206;-6.106;2022-11-13T12:39:01;4.25;;;2.35;;
58697;SDS011;44475;53.206;-6.106;2022-11-13T12:44:51;6.50;;;2.80;;
58697;SDS011;44475;53.206;-6.106;2022-11-13T12:48:52;4.97;;;2.35;;
58697;SDS011;44475;53.206;-6.106;2022-11-13T12:51:19;5.10;;;2.50;;
58697;SDS011;44475;53.206;-6.106;2022-11-13T12:54:04;4.53;;;2.58;;
58697;SDS011;44475;53.206;-6.106;2022-11-13T12:56:49;5.03;;;2.65;;
58697;SDS011;44475;53.206;-6.106;2022-11-13T12:59:44;5.15;;;2.60;;
58697;SDS011;44475;53.206;-6.106;2022-11-13T13:13:10;5.07;;;2.60;;
58697;SDS011;44475;53.206;-6.106;2022-11-13T13:15:31;5.15;;;2.67;;
58697;SDS011;44475;53.206;-6.106;2022-11-13T13:23:50;5.53;;;2.60;;
58697;SDS011;44475;53.206;-6.106;2022-11-13T13:26:42;4.50;;;2.70;;
58697;SDS011;44475;53.206;-6.106;2022-11-13T13:29:32;5.00;;;2.80;;
58697;SDS011;44475;53.206;-6.106;2022-11-13T13:32:20;4.60;;;2.60;;
58697;SDS011;44475;53.206;-6.106;2022-11-13T13:35:20;5.10;;;2.60;;
58697;SDS011;44475;53.206;-6.106;2022-11-13T13:38:31;4.15;;;2.60;;
58697;SDS011;44475;53.206;-6.106;2022-11-13T13:47:46;5.20;;;2.80;;
58697;SDS011;44475;53.206;-6.106;2022-11-13T13:50:33;4.07;;;2.42;;
58697;SDS011;44475;53.206;-6.106;2022-11-13T13:53:25;7.07;;;2.60;;
58697;SDS011;44475;53.206;-6.106;2022-11-13T13:56:13;5.40;;;2.58;;
58697;SDS011;44475;53.206;-6.106;2022-11-13T13:58:59;4.82;;;2.55;;
58697;SDS011;44475;53.206;-6.106;2022-11-13T14:01:52;5.00;;;2.65;;
58697;SDS011;44475;53.206;-6.106;2022-11-13T14:04:46;6.13;;;2.60;;
58697;SDS011;44475;53.206;-6.106;2022-11-13T14:07:37;5.85;;;2.60;;
58697;SDS011;44475;53.206;-6.106;2022-11-13T14:10:28;5.00;;;2.70;;
58697;SDS011;44475;53.206;-6.106;2022-11-13T14:13:21;4.88;;;2.70;;
58697;SDS011;44475;53.206;-6.106;2022-11-13T14:16:07;4.45;;;2.33;;
58697;SDS011;44475;53.206;-6.106;2022-11-13T14:19:01;5.57;;;2.70;;
58697;SDS011;44475;53.206;-6.106;2022-11-13T14:21:55;5.28;;;2.55;;
58697;SDS011;44475;53.206;-6.106;2022-11-13T14:27:34;6.40;;;2.95;;
58697;SDS011;44475;53.206;-6.106;2022-11-13T14:30:24;6.18;;;2.60;;
58697;SDS011;44475;53.206;-6.106;2022-11-13T14:33:13;5.78;;;2.50;;
58697;SDS011;44475;53.206;-6.106;2022-11-13T14:36:03;4.97;;;2.65;;
58697;SDS011;44475;53.206;-6.106;2022-11-13T14:38:49;5.35;;;2.75;;
58697;SDS011;44475;53.206;-6.106;2022-11-13T14:44:26;5.13;;;2.70;;
58697;SDS011;44475;53.206;-6.106;2022-11-13T14:47:20;6.38;;;2.65;;
58697;SDS011;44475;53.206;-6.106;2022-11-13T14:50:19;6.00;;;2.65;;
58697;SDS011;44475;53.206;-6.106;2022-11-13T14:53:06;5.65;;;2.78;;
58697;SDS011;44475;53.206;-6.106;2022-11-13T14:55:53;5.05;;;2.53;;
58697;SDS011;44475;53.206;-6.106;2022-11-13T14:58:40;5.07;;;2.67;;
58697;SDS011;44475;53.206;-6.106;2022-11-13T15:01:29;5.90;;;2.90;;
58697;SDS011;44475;53.206;-6.106;2022-11-13T15:04:15;5.30;;;2.53;;
58697;SDS011;44475;53.206;-6.106;2022-11-13T15:07:00;5.18;;;2.78;;
58697;SDS011;44475;53.206;-6.106;2022-11-13T15:09:46;4.35;;;2.70;;
58697;SDS011;44475;53.206;-6.106;2022-11-13T15:12:31;5.85;;;2.72;;
58697;SDS011;44475;53.206;-6.106;2022-11-13T15:15:19;5.22;;;2.80;;
58697;SDS011;44475;53.206;-6.106;2022-11-13T15:18:14;5.88;;;2.83;;
58697;SDS011;44475;53.206;-6.106;2022-11-13T15:21:01;5.40;;;2.80;;
58697;SDS011;44475;53.206;-6.106;2022-11-13T15:23:46;4.90;;;2.78;;
58697;SDS011;44475;53.206;-6.106;2022-11-13T15:26:31;4.43;;;2.75;;
58697;SDS011;44475;53.206;-6.106;2022-11-13T15:29:15;4.88;;;2.67;;
58697;SDS011;44475;53.206;-6.106;2022-11-13T15:32:00;4.65;;;2.70;;
58697;SDS011;44475;53.206;-6.106;2022-11-13T15:34:44;4.85;;;2.80;;
58697;SDS011;44475;53.206;-6.106;2022-11-13T15:37:29;4.57;;;2.97;;
58697;SDS011;44475;53.206;-6.106;2022-11-13T15:40:14;5.53;;;2.78;;
58697;SDS011;44475;53.206;-6.106;2022-11-13T15:43:00;6.22;;;3.10;;
58697;SDS011;44475;53.206;-6.106;2022-11-13T15:45:45;6.07;;;2.80;;
58697;SDS011;44475;53.206;-6.106;2022-11-13T15:48:30;5.70;;;3.05;;
58697;SDS011;44475;53.206;-6.106;2022-11-13T15:51:17;5.32;;;3.00;;
58697;SDS011;44475;53.206;-6.106;2022-11-13T15:57:24;6.18;;;2.90;;
58697;SDS011;44475;53.206;-6.106;2022-11-13T16:00:22;6.32;;;2.92;;
58697;SDS011;44475;53.206;-6.106;2022-11-13T16:03:09;4.95;;;2.78;;
58697;SDS011;44475;53.206;-6.106;2022-11-13T16:05:55;5.75;;;2.97;;
58697;SDS011;44475;53.206;-6.106;2022-11-13T16:08:41;6.05;;;2.92;;
58697;SDS011;44475;53.206;-6.106;2022-11-13T16:11:26;5.22;;;2.72;;
58697;SDS011;44475;53.206;-6.106;2022-11-13T16:14:17;5.50;;;2.72;;
58697;SDS011;44475;53.206;-6.106;2022-11-13T16:17:03;6.03;;;3.10;;
58697;SDS011;44475;53.206;-6.106;2022-11-13T16:19:54;5.25;;;2.65;;
58697;SDS011;44475;53.206;-6.106;2022-11-13T16:22:39;5.43;;;2.65;;
58697;SDS011;44475;53.206;-6.106;2022-11-13T16:25:25;6.05;;;3.33;;
58697;SDS011;44475;53.206;-6.106;2022-11-13T16:28:17;5.22;;;2.90;;
58697;SDS011;44475;53.206;-6.106;2022-11-13T16:31:02;5.53;;;2.88;;
58697;SDS011;44475;53.206;-6.106;2022-11-13T16:33:47;4.40;;;2.60;;
58697;SDS011;44475;53.206;-6.106;2022-11-13T16:36:32;5.70;;;3.20;;
58697;SDS011;44475;53.206;-6.106;2022-11-13T16:39:17;4.45;;;2.85;;
58697;SDS011;44475;53.206;-6.106;2022-11-13T16:42:02;4.60;;;2.53;;
58697;SDS011;44475;53.206;-6.106;2022-11-13T16:44:47;6.70;;;3.10;;
58697;SDS011;44475;53.206;-6.106;2022-11-13T16:47:31;5.78;;;2.90;;
58697;SDS011;44475;53.206;-6.106;2022-11-13T16:50:17;4.63;;;2.97;;
58697;SDS011;44475;53.206;-6.106;2022-11-13T16:53:04;6.50;;;2.95;;
58697;SDS011;44475;53.206;-6.106;2022-11-13T16:55:50;5.35;;;2.85;;
58697;SDS011;44475;53.206;-6.106;2022-11-13T16:58:35;4.90;;;2.78;;
58697;SDS011;44475;53.206;-6.106;2022-11-13T17:01:20;5.15;;;2.97;;
58697;SDS011;44475;53.206;-6.106;2022-11-13T17:04:04;5.07;;;3.10;;
58697;SDS011;44475;53.206;-6.106;2022-11-13T17:06:49;5.72;;;3.15;;
58697;SDS011;44475;53.206;-6.106;2022-11-13T17:09:37;5.90;;;2.90;;
58697;SDS011;44475;53.206;-6.106;2022-11-13T17:12:25;5.70;;;3.13;;
58697;SDS011;44475;53.206;-6.106;2022-11-13T17:15:10;6.82;;;3.42;;
58697;SDS011;44475;53.206;-6.106;2022-11-13T17:17:55;5.85;;;2.88;;
58697;SDS011;44475;53.206;-6.106;2022-11-13T17:20:41;4.50;;;2.75;;
58697;SDS011;44475;53.206;-6.106;2022-11-13T17:23:25;5.55;;;2.80;;
58697;SDS011;44475;53.206;-6.106;2022-11-13T17:26:10;6.10;;;3.22;;
58697;SDS011;44475;53.206;-6.106;2022-11-13T17:28:55;5.18;;;3.05;;
58697;SDS011;44475;53.206;-6.106;2022-11-13T17:31:42;5.10;;;3.05;;
58697;SDS011;44475;53.206;-6.106;2022-11-13T17:34:27;5.13;;;2.90;;
58697;SDS011;44475;53.206;-6.106;2022-11-13T17:37:12;5.97;;;2.97;;
58697;SDS011;44475;53.206;-6.106;2022-11-13T17:39:57;5.15;;;3.25;;
58697;SDS011;44475;53.206;-6.106;2022-11-13T17:42:41;5.75;;;3.10;;
58697;SDS011;44475;53.206;-6.106;2022-11-13T17:45:26;6.43;;;3.08;;
58697;SDS011;44475;53.206;-6.106;2022-11-13T17:48:11;6.85;;;3.05;;
58697;SDS011;44475;53.206;-6.106;2022-11-13T17:50:56;4.82;;;3.20;;
58697;SDS011;44475;53.206;-6.106;2022-11-13T17:53:41;4.47;;;3.28;;
58697;SDS011;44475;53.206;-6.106;2022-11-13T17:56:26;6.55;;;3.13;;
58697;SDS011;44475;53.206;-6.106;2022-11-13T17:59:11;6.90;;;3.28;;
58697;SDS011;44475;53.206;-6.106;2022-11-13T18:01:56;4.88;;;3.20;;
58697;SDS011;44475;53.206;-6.106;2022-11-13T18:04:40;6.30;;;3.30;;
58697;SDS011;44475;53.206;-6.106;2022-11-13T18:07:26;5.55;;;3.33;;
58697;SDS011;44475;53.206;-6.106;2022-11-13T18:10:11;8.20;;;3.30;;